Time;durP1;ratioP1;P1;durP2;ratioP2;P2;SDS_P1;SDS_P2;PMS_P1;PMS_P2;Temp;Humidity;BMP_temperature;BMP_pressure;BME280_temperature;BME280_humidity;BME280_pressure;Samples;Min_cycle;Max_cycle;Signal;HPM_P1;HPM_P2
2022/07/06 00:02:27;;;;;;;3.87;2.20;;;20.40;58.90;;;;;;7414873;19;20408;-80
2022/07/06 00:04:57;;;;;;;3.67;2.77;;;20.50;58.60;;;;;;7411810;19;20404;-80
2022/07/06 00:07:27;;;;;;;3.30;2.53;;;20.40;58.90;;;;;;7417014;19;20400;-79
2022/07/06 00:09:58;;;;;;;2.97;2.00;;;20.20;59.40;;;;;;7413353;19;20510;-87
2022/07/06 00:12:30;;;;;;;2.50;2.20;;;19.90;60.80;;;;;;7426183;19;20422;-87
2022/07/06 00:15:01;;;;;;;2.83;2.07;;;19.80;60.90;;;;;;7424298;19;20411;-86
2022/07/06 00:17:31;;;;;;;2.97;2.70;;;19.70;61.80;;;;;;7429296;19;20464;-87
2022/07/06 00:20:00;;;;;;;2.30;2.03;;;19.80;61.30;;;;;;7426502;19;20440;-86
2022/07/06 00:22:30;;;;;;;3.10;2.50;;;19.90;61.40;;;;;;7430175;19;20447;-87
2022/07/06 00:24:59;;;;;;;2.37;1.80;;;19.70;61.90;;;;;;7428594;19;20408;-86
2022/07/06 00:27:31;;;;;;;2.20;2.00;;;19.50;62.40;;;;;;7429268;19;20420;-87
2022/07/06 00:30:01;;;;;;;3.73;1.93;;;19.60;62.80;;;;;;7429491;19;20408;-87
2022/07/06 00:32:30;;;;;;;4.37;1.87;;;19.80;62.30;;;;;;7398352;19;20472;-87
2022/07/06 00:35:00;;;;;;;3.43;2.17;;;19.90;61.80;;;;;;7394666;19;20434;-87
2022/07/06 00:37:29;;;;;;;2.63;2.30;;;19.60;62.40;;;;;;7402918;19;20499;-87
2022/07/06 00:39:59;;;;;;;3.43;2.93;;;19.20;64.20;;;;;;7390638;19;20479;-79
2022/07/06 00:42:42;;;;;;;2.83;2.40;;;19.00;66.40;;;;;;7373481;19;20404;-79
2022/07/06 00:45:15;;;;;;;2.97;2.10;;;19.00;66.20;;;;;;7370905;19;20372;-80
2022/07/06 00:47:46;;;;;;;2.77;2.20;;;18.90;66.90;;;;;;7372765;19;20855;-80
2022/07/06 00:50:20;;;;;;;3.17;2.40;;;19.10;66.30;;;;;;7374241;19;20412;-79
2022/07/06 00:52:51;;;;;;;3.90;2.07;;;19.00;67.10;;;;;;7372839;19;20399;-79
2022/07/06 00:55:23;;;;;;;7.00;2.57;;;18.60;68.70;;;;;;7372123;19;20941;-80
2022/07/06 00:57:56;;;;;;;2.67;2.40;;;18.80;68.70;;;;;;7356139;19;20448;-79
2022/07/06 01:00:28;;;;;;;4.70;2.50;;;19.00;67.70;;;;;;7368252;19;23727;-78
2022/07/06 01:02:58;;;;;;;3.57;2.90;;;19.00;67.70;;;;;;7368995;19;21016;-79
2022/07/06 01:05:27;;;;;;;2.77;2.30;;;19.10;67.40;;;;;;7372321;19;21208;-79
2022/07/06 01:07:57;;;;;;;3.13;2.30;;;19.00;67.10;;;;;;7373829;19;20877;-79
2022/07/06 01:10:27;;;;;;;3.80;2.67;;;18.90;67.80;;;;;;7373240;19;20412;-80
2022/07/06 01:12:59;;;;;;;2.97;2.40;;;18.80;68.70;;;;;;7371924;19;20416;-80
2022/07/06 01:15:29;;;;;;;3.40;2.43;;;18.90;67.50;;;;;;7362280;19;20397;-79
2022/07/06 01:18:01;;;;;;;4.87;2.70;;;19.00;67.10;;;;;;7372500;19;20404;-80
2022/07/06 01:20:38;;;;;;;2.60;2.37;;;18.90;68.20;;;;;;7366479;19;20432;-80
2022/07/06 01:23:08;;;;;;;2.97;2.60;;;19.00;68.10;;;;;;7366219;19;20940;-80
2022/07/06 01:25:43;;;;;;;4.50;2.60;;;19.10;66.90;;;;;;7374334;19;20732;-80
2022/07/06 01:28:15;;;;;;;2.40;2.20;;;18.90;67.00;;;;;;7366862;19;20539;-80
2022/07/06 01:30:48;;;;;;;2.97;2.30;;;19.00;66.90;;;;;;7369811;19;20408;-81
2022/07/06 01:33:17;;;;;;;2.60;2.40;;;19.30;65.10;;;;;;7371586;19;20513;-79
2022/07/06 01:35:52;;;;;;;2.53;2.33;;;19.40;64.60;;;;;;7373007;19;20561;-80
2022/07/06 01:38:22;;;;;;;3.43;2.23;;;19.70;61.70;;;;;;7366399;19;20927;-80
2022/07/06 01:40:51;;;;;;;2.27;1.87;;;19.90;59.40;;;;;;7371572;19;20419;-80
2022/07/06 01:43:21;;;;;;;2.93;1.93;;;20.10;59.00;;;;;;7368645;19;20408;-80
2022/07/06 01:45:51;;;;;;;2.67;2.43;;;20.20;58.40;;;;;;7369304;19;21203;-80
2022/07/06 01:48:20;;;;;;;4.27;2.40;;;20.20;57.80;;;;;;7372534;19;20413;-79
2022/07/06 01:50:52;;;;;;;1.87;1.77;;;20.40;57.60;;;;;;7369879;19;20425;-78
2022/07/06 01:53:22;;;;;;;3.67;2.13;;;20.40;57.40;;;;;;7375551;19;20400;-80
2022/07/06 01:55:51;;;;;;;3.30;2.10;;;20.30;57.00;;;;;;7376902;19;20409;-79
2022/07/06 01:58:21;;;;;;;5.87;2.27;;;20.30;57.20;;;;;;7378282;19;20428;-80
2022/07/06 02:00:51;;;;;;;2.70;2.23;;;20.30;57.60;;;;;;7373876;19;20412;-81
2022/07/06 02:03:20;;;;;;;5.17;2.20;;;20.40;57.10;;;;;;7380318;19;20435;-81
2022/07/06 02:05:55;;;;;;;4.97;2.40;;;20.40;56.70;;;;;;7373486;19;20420;-81
2022/07/06 02:08:26;;;;;;;2.23;1.97;;;20.40;57.30;;;;;;7373817;19;20404;-81
2022/07/06 02:10:58;;;;;;;2.90;2.07;;;20.40;56.90;;;;;;7377541;19;20521;-79
2022/07/06 02:13:28;;;;;;;5.90;1.97;;;20.30;57.00;;;;;;7377870;19;21265;-79
2022/07/06 02:15:57;;;;;;;2.40;2.20;;;20.30;57.00;;;;;;7377101;19;20458;-79
2022/07/06 02:18:27;;;;;;;3.13;2.50;;;20.30;56.80;;;;;;7379902;19;20916;-81
2022/07/06 02:21:01;;;;;;;3.20;1.97;;;20.30;57.00;;;;;;7370409;19;20427;-79
2022/07/06 02:23:30;;;;;;;2.30;1.90;;;20.30;57.10;;;;;;7377835;19;20958;-79
2022/07/06 02:26:01;;;;;;;3.67;2.20;;;20.30;57.00;;;;;;7374992;19;20408;-80
2022/07/06 02:28:30;;;;;;;3.73;1.87;;;20.00;57.70;;;;;;7375432;19;20874;-80
2022/07/06 02:31:02;;;;;;;3.70;2.47;;;20.00;57.90;;;;;;7373635;19;20427;-80
2022/07/06 02:33:33;;;;;;;2.27;2.07;;;19.90;57.70;;;;;;7375229;19;20408;-80
2022/07/06 02:36:05;;;;;;;4.20;2.30;;;19.90;57.80;;;;;;7373612;19;20404;-81
2022/07/06 02:38:39;;;;;;;2.73;2.00;;;20.00;58.00;;;;;;7376134;19;20396;-80
2022/07/06 02:41:09;;;;;;;2.10;1.90;;;19.90;58.20;;;;;;7373974;19;20413;-81
2022/07/06 02:43:41;;;;;;;3.73;2.30;;;19.90;58.20;;;;;;7374846;19;20447;-81
2022/07/06 02:46:13;;;;;;;3.13;2.33;;;19.80;58.30;;;;;;7374033;19;20423;-81
2022/07/06 02:48:44;;;;;;;3.63;2.37;;;19.20;60.00;;;;;;7379997;19;20408;-81
2022/07/06 02:51:17;;;;;;;3.23;2.47;;;19.20;60.50;;;;;;7381688;19;20400;-86
2022/07/06 02:53:46;;;;;;;3.80;2.23;;;19.00;60.60;;;;;;7388993;19;21158;-87
2022/07/06 02:56:16;;;;;;;2.63;2.43;;;19.00;61.20;;;;;;7388951;19;20400;-85
2022/07/06 02:58:47;;;;;;;4.03;2.80;;;18.90;61.60;;;;;;7382861;19;20505;-86
2022/07/06 03:01:17;;;;;;;3.70;2.20;;;19.10;60.90;;;;;;7382654;19;20487;-86
2022/07/06 03:03:47;;;;;;;2.73;2.53;;;19.20;61.20;;;;;;7384761;19;20401;-86
2022/07/06 03:06:21;;;;;;;2.67;2.30;;;19.20;61.30;;;;;;7386524;19;20460;-86
2022/07/06 03:08:51;;;;;;;3.73;2.47;;;19.20;60.70;;;;;;7384320;19;20400;-86
2022/07/06 03:11:21;;;;;;;4.63;2.60;;;19.30;60.50;;;;;;7385846;19;20965;-85
2022/07/06 03:13:51;;;;;;;2.77;2.47;;;19.30;60.50;;;;;;7384907;19;20469;-84
2022/07/06 03:16:23;;;;;;;2.73;2.07;;;19.30;60.60;;;;;;7380346;19;20412;-85
2022/07/06 03:18:53;;;;;;;3.17;2.30;;;19.40;60.60;;;;;;7384346;19;20420;-85
2022/07/06 03:21:25;;;;;;;3.03;2.43;;;19.40;61.00;;;;;;7379964;19;20436;-85
2022/07/06 03:23:55;;;;;;;3.00;1.93;;;19.40;60.70;;;;;;7386293;19;20408;-86
2022/07/06 03:26:24;;;;;;;3.63;1.97;;;19.50;60.60;;;;;;7382461;19;20774;-85
2022/07/06 03:28:58;;;;;;;2.90;2.67;;;19.60;60.40;;;;;;7385705;19;20412;-86
2022/07/06 03:31:28;;;;;;;4.97;3.10;;;19.60;60.00;;;;;;7376903;19;20427;-80
2022/07/06 03:33:58;;;;;;;2.87;2.57;;;19.60;60.80;;;;;;7374015;19;20412;-81
2022/07/06 03:36:30;;;;;;;3.30;2.20;;;19.60;60.00;;;;;;7371841;19;20492;-81
2022/07/06 03:39:02;;;;;;;5.50;2.30;;;19.60;60.50;;;;;;7378399;19;20479;-81
2022/07/06 03:41:32;;;;;;;4.70;3.50;;;19.60;60.60;;;;;;7373810;19;20415;-81
2022/07/06 03:44:02;;;;;;;2.67;2.33;;;19.50;60.40;;;;;;7376841;19;20412;-81
2022/07/06 03:46:33;;;;;;;4.10;2.50;;;19.50;60.70;;;;;;7371123;19;20405;-80
2022/07/06 03:49:03;;;;;;;3.00;2.50;;;19.60;60.70;;;;;;7376584;19;21888;-80
2022/07/06 03:51:39;;;;;;;4.30;2.70;;;19.60;60.30;;;;;;7376881;19;20415;-80
2022/07/06 03:54:09;;;;;;;5.00;2.67;;;19.60;60.00;;;;;;7377096;19;20772;-81
2022/07/06 03:56:39;;;;;;;2.90;2.43;;;19.70;60.10;;;;;;7377439;19;20416;-81
2022/07/06 03:59:15;;;;;;;3.00;2.30;;;19.70;60.10;;;;;;7375086;19;20428;-78
2022/07/06 04:01:47;;;;;;;4.10;2.10;;;19.70;60.00;;;;;;7412614;19;20393;-81
2022/07/06 04:04:19;;;;;;;5.73;4.27;;;19.70;60.20;;;;;;7413332;19;20436;-81
2022/07/06 04:06:53;;;;;;;2.83;2.50;;;19.70;60.80;;;;;;7402976;19;20809;-82
2022/07/06 04:09:23;;;;;;;3.50;2.73;;;19.60;60.60;;;;;;7413875;19;20440;-82
2022/07/06 04:11:53;;;;;;;3.07;2.77;;;19.40;61.40;;;;;;7410409;19;20405;-82
2022/07/06 04:14:23;;;;;;;2.90;2.70;;;19.50;61.90;;;;;;7414454;19;20458;-82
2022/07/06 04:16:52;;;;;;;4.67;2.83;;;19.60;61.80;;;;;;7411194;19;20407;-82
2022/07/06 04:19:22;;;;;;;6.43;3.17;;;19.60;61.60;;;;;;7400198;19;20450;-82
2022/07/06 04:21:54;;;;;;;2.87;2.57;;;19.50;62.00;;;;;;7394372;19;20459;-82
2022/07/06 04:24:25;;;;;;;4.53;3.40;;;19.60;61.80;;;;;;7406660;19;20408;-82
2022/07/06 04:26:54;;;;;;;4.00;3.00;;;19.40;61.60;;;;;;7407527;19;20411;-82
2022/07/06 04:29:24;;;;;;;6.87;4.43;;;19.50;62.30;;;;;;7408589;19;20396;-82
2022/07/06 04:31:55;;;;;;;4.77;3.47;;;19.50;62.70;;;;;;7411633;19;20405;-82
2022/07/06 04:34:25;;;;;;;4.23;2.83;;;19.50;62.40;;;;;;7412466;19;20408;-82
2022/07/06 04:36:57;;;;;;;3.80;3.40;;;19.60;62.60;;;;;;7413268;19;20407;-82
2022/07/06 04:39:27;;;;;;;5.90;4.20;;;19.60;62.40;;;;;;7409897;19;20417;-81
2022/07/06 04:41:57;;;;;;;5.20;4.30;;;19.70;61.90;;;;;;7386790;19;20939;-80
2022/07/06 04:44:27;;;;;;;6.50;4.37;;;19.70;62.20;;;;;;7382860;19;20416;-80
2022/07/06 04:46:56;;;;;;;11.83;7.17;;;19.60;62.50;;;;;;7379823;19;20423;-80
2022/07/06 04:49:26;;;;;;;4.50;4.10;;;19.70;62.80;;;;;;7379280;19;20734;-81
2022/07/06 04:51:58;;;;;;;6.50;4.23;;;19.70;62.60;;;;;;7377362;19;20372;-80
2022/07/06 04:54:28;;;;;;;7.40;4.50;;;19.80;62.70;;;;;;7377490;19;20495;-80
2022/07/06 04:56:58;;;;;;;10.43;7.00;;;19.80;62.60;;;;;;7376122;19;20440;-80
2022/07/06 04:59:28;;;;;;;5.43;3.90;;;19.90;62.70;;;;;;7376307;19;20400;-80
2022/07/06 05:01:57;;;;;;;6.73;5.77;;;19.90;62.80;;;;;;7383877;19;20408;-86
2022/07/06 05:04:27;;;;;;;9.90;7.00;;;19.90;63.00;;;;;;7387534;19;20400;-86
2022/07/06 05:07:01;;;;;;;5.47;4.90;;;19.90;63.60;;;;;;7386766;19;20423;-85
2022/07/06 05:09:33;;;;;;;7.80;6.60;;;19.90;63.20;;;;;;7388162;19;21070;-86
2022/07/06 05:12:04;;;;;;;4.77;4.20;;;19.80;63.40;;;;;;7386061;19;20412;-86
2022/07/06 05:14:36;;;;;;;6.40;4.80;;;19.90;63.70;;;;;;7387876;19;20408;-86
2022/07/06 05:17:09;;;;;;;7.40;4.87;;;20.00;63.30;;;;;;7385835;19;20427;-86
2022/07/06 05:19:38;;;;;;;5.93;4.23;;;20.00;63.00;;;;;;7383583;19;20448;-86
2022/07/06 05:22:14;;;;;;;6.43;5.20;;;20.10;63.40;;;;;;7382140;19;20424;-86
2022/07/06 05:24:44;;;;;;;6.83;4.23;;;20.10;63.20;;;;;;7384713;19;20490;-85
2022/07/06 05:27:16;;;;;;;7.17;4.13;;;20.30;63.50;;;;;;7385097;19;20924;-87
2022/07/06 05:29:48;;;;;;;6.60;4.53;;;20.30;62.80;;;;;;7385136;19;20865;-86
2022/07/06 05:32:18;;;;;;;5.73;3.37;;;20.30;62.90;;;;;;7375957;19;20405;-82
2022/07/06 05:34:47;;;;;;;4.00;3.20;;;20.40;62.80;;;;;;7360055;19;20545;-80
2022/07/06 05:37:19;;;;;;;4.63;3.50;;;20.30;62.40;;;;;;7368840;19;21067;-80
2022/07/06 05:39:50;;;;;;;4.40;3.30;;;20.40;62.80;;;;;;7374863;19;20416;-80
2022/07/06 05:42:22;;;;;;;3.50;3.20;;;20.40;62.50;;;;;;7374969;19;20404;-80
2022/07/06 05:44:51;;;;;;;4.33;3.30;;;20.40;62.30;;;;;;7371796;19;20412;-80
2022/07/06 05:50:15;;;;;;;3.73;3.00;;;20.50;62.50;;;;;;7373469;19;20405;-81
2022/07/06 05:53:01;;;;;;;2.83;2.60;;;20.50;62.30;;;;;;7375662;19;20426;-81
2022/07/06 05:55:33;;;;;;;3.53;3.00;;;20.50;61.30;;;;;;7375829;19;20404;-78
2022/07/06 05:58:08;;;;;;;3.50;3.00;;;20.60;61.40;;;;;;7363614;19;21237;-81
2022/07/06 06:00:39;;;;;;;6.07;2.97;;;20.70;61.30;;;;;;7365335;19;21433;-86
2022/07/06 06:03:16;;;;;;;3.57;3.27;;;20.90;60.30;;;;;;7379721;19;20412;-88
2022/07/06 06:05:45;;;;;;;4.77;2.87;;;20.90;60.70;;;;;;7377768;19;20951;-84
2022/07/06 06:08:22;;;;;;;5.17;3.40;;;20.80;60.60;;;;;;7368837;19;20408;-83
2022/07/06 06:10:54;;;;;;;3.90;2.50;;;20.90;60.20;;;;;;7361582;19;20430;-81
2022/07/06 06:13:26;;;;;;;4.30;3.30;;;20.90;60.30;;;;;;7384044;19;20404;-83
2022/07/06 06:15:58;;;;;;;5.60;3.17;;;21.00;59.80;;;;;;7378331;19;20419;-84
2022/07/06 06:18:30;;;;;;;3.87;2.80;;;21.00;59.80;;;;;;7381119;19;20931;-83
2022/07/06 06:20:59;;;;;;;3.60;3.30;;;21.20;59.50;;;;;;7385202;19;20483;-83
2022/07/06 06:23:34;;;;;;;4.40;3.37;;;21.20;59.10;;;;;;7383240;19;20400;-85
2022/07/06 06:26:03;;;;;;;4.00;2.90;;;21.20;59.00;;;;;;7379867;19;20407;-86
2022/07/06 06:28:33;;;;;;;5.13;3.10;;;21.30;59.10;;;;;;7382607;19;21547;-83
2022/07/06 06:31:05;;;;;;;5.73;3.20;;;21.20;58.40;;;;;;7384622;19;20416;-88
2022/07/06 06:33:36;;;;;;;3.80;3.00;;;21.50;58.80;;;;;;7392372;19;20459;-85
2022/07/06 06:36:07;;;;;;;4.43;2.70;;;21.70;58.00;;;;;;7382998;19;20409;-85
2022/07/06 06:38:41;;;;;;;4.53;3.47;;;21.60;57.80;;;;;;7391012;19;20428;-86
2022/07/06 06:41:11;;;;;;;4.03;2.97;;;21.70;57.90;;;;;;7390891;19;20401;-86
2022/07/06 06:43:41;;;;;;;3.87;3.07;;;21.80;57.90;;;;;;7390767;19;20444;-87
2022/07/06 06:46:16;;;;;;;3.63;2.77;;;22.00;57.50;;;;;;7371675;19;20572;-86
2022/07/06 06:48:46;;;;;;;8.57;5.50;;;22.20;57.20;;;;;;7382501;19;20401;-86
2022/07/06 06:51:18;;;;;;;5.53;3.93;;;22.20;56.80;;;;;;7383622;19;20439;-86
2022/07/06 06:53:50;;;;;;;4.33;3.50;;;22.20;57.00;;;;;;7383280;19;20499;-87
2022/07/06 06:56:20;;;;;;;5.20;3.10;;;22.30;57.00;;;;;;7374709;19;20416;-86
2022/07/06 06:58:49;;;;;;;4.17;2.60;;;22.40;57.30;;;;;;7367846;19;21159;-86
2022/07/06 07:01:24;;;;;;;5.13;3.00;;;22.40;56.50;;;;;;7374647;19;20416;-85
2022/07/06 07:03:54;;;;;;;5.60;3.40;;;22.60;56.20;;;;;;7367910;19;20397;-85
2022/07/06 07:06:24;;;;;;;3.90;2.77;;;22.50;56.00;;;;;;7378137;19;21311;-85
2022/07/06 07:08:57;;;;;;;3.33;2.83;;;22.30;56.10;;;;;;7367781;19;20417;-86
2022/07/06 07:11:26;;;;;;;9.23;3.93;;;22.30;56.10;;;;;;7386123;19;20431;-85
2022/07/06 07:14:00;;;;;;;5.13;2.80;;;22.30;56.30;;;;;;7380427;19;21173;-86
2022/07/06 07:16:29;;;;;;;3.70;2.50;;;22.30;56.00;;;;;;7389087;19;20396;-90
2022/07/06 07:19:01;;;;;;;6.93;2.60;;;22.40;56.50;;;;;;7394326;19;20408;-90
2022/07/06 07:21:31;;;;;;;3.30;2.87;;;22.40;55.70;;;;;;7399811;19;20489;-90
2022/07/06 07:24:03;;;;;;;3.77;2.53;;;22.60;55.20;;;;;;7396842;19;20399;-90
2022/07/06 07:26:33;;;;;;;3.93;3.00;;;22.90;55.40;;;;;;7398410;19;20442;-90
2022/07/06 07:29:03;;;;;;;3.20;2.60;;;23.10;54.60;;;;;;7398542;19;20488;-90
2022/07/06 07:31:32;;;;;;;3.47;2.53;;;23.30;53.50;;;;;;7398418;19;20737;-90
2022/07/06 07:34:02;;;;;;;6.13;3.03;;;23.30;53.00;;;;;;7398160;19;20985;-89
2022/07/06 07:36:35;;;;;;;5.50;3.17;;;23.40;53.10;;;;;;7398745;19;20980;-89
2022/07/06 07:39:07;;;;;;;7.97;6.27;;;23.50;52.50;;;;;;7396584;19;20400;-89
2022/07/06 07:41:37;;;;;;;4.90;3.30;;;23.70;52.50;;;;;;7397084;19;20397;-89
2022/07/06 07:44:07;;;;;;;4.13;3.73;;;23.80;51.80;;;;;;7397203;19;20404;-90
2022/07/06 07:46:41;;;;;;;4.40;3.27;;;23.80;51.80;;;;;;7391539;19;21072;-89
2022/07/06 07:49:11;;;;;;;3.63;2.90;;;23.90;51.70;;;;;;7400533;19;20423;-88
2022/07/06 07:51:41;;;;;;;3.70;2.20;;;24.00;51.90;;;;;;7397177;19;21242;-90
2022/07/06 07:54:13;;;;;;;2.77;2.57;;;24.10;51.90;;;;;;7398857;19;20411;-89
2022/07/06 07:56:43;;;;;;;7.90;3.50;;;24.20;51.40;;;;;;7395844;19;20465;-89
2022/07/06 07:59:13;;;;;;;4.40;3.20;;;24.30;51.40;;;;;;7389984;19;20392;-92
2022/07/06 08:01:44;;;;;;;5.60;2.53;;;24.20;51.70;;;;;;7396474;19;20452;-88
2022/07/06 08:04:13;;;;;;;3.13;2.43;;;24.10;51.80;;;;;;7410669;19;20477;-87
2022/07/06 08:06:43;;;;;;;3.30;2.93;;;24.20;51.20;;;;;;7411400;19;20405;-87
2022/07/06 08:09:16;;;;;;;8.47;3.40;;;23.60;50.50;;;;;;7411610;19;20789;-86
2022/07/06 08:11:48;;;;;;;6.03;2.90;;;23.60;51.10;;;;;;7407883;19;20404;-87
2022/07/06 08:14:20;;;;;;;3.97;2.50;;;23.90;51.40;;;;;;7405058;19;20410;-87
2022/07/06 08:16:52;;;;;;;4.50;3.30;;;24.20;51.50;;;;;;7404367;19;20434;-87
2022/07/06 08:19:21;;;;;;;4.17;2.00;;;24.40;51.10;;;;;;7411206;19;20443;-86
2022/07/06 08:21:53;;;;;;;6.20;2.57;;;24.40;51.30;;;;;;7407073;19;20429;-85
2022/07/06 08:24:25;;;;;;;4.60;2.60;;;24.70;51.20;;;;;;7411930;19;21781;-86
2022/07/06 08:26:58;;;;;;;5.10;2.40;;;25.00;50.70;;;;;;7411550;19;20727;-85
2022/07/06 08:29:27;;;;;;;6.23;2.60;;;25.10;50.20;;;;;;7414958;19;20432;-85
2022/07/06 08:31:57;;;;;;;3.20;2.63;;;25.30;49.70;;;;;;7414475;19;20405;-85
2022/07/06 08:34:27;;;;;;;2.93;2.73;;;25.50;49.00;;;;;;7422055;19;20391;-86
2022/07/06 08:36:57;;;;;;;6.00;3.17;;;25.40;49.20;;;;;;7423748;19;20401;-84
2022/07/06 08:39:29;;;;;;;5.03;2.80;;;25.40;49.30;;;;;;7420984;19;20398;-87
2022/07/06 08:42:01;;;;;;;3.90;2.17;;;25.50;49.50;;;;;;7404490;19;21272;-89
2022/07/06 08:44:33;;;;;;;2.50;2.03;;;25.70;49.30;;;;;;7403724;19;20935;-89
2022/07/06 08:47:08;;;;;;;5.17;2.60;;;25.90;48.20;;;;;;7398359;19;20412;-89
2022/07/06 08:49:42;;;;;;;8.07;3.07;;;26.10;48.20;;;;;;7397997;19;20504;-90
2022/07/06 08:52:12;;;;;;;3.00;2.30;;;26.10;48.50;;;;;;7397568;19;20415;-87
2022/07/06 08:54:47;;;;;;;4.47;2.00;;;26.30;48.10;;;;;;7387816;19;20412;-81
2022/07/06 08:57:20;;;;;;;4.27;3.20;;;26.40;48.00;;;;;;7386405;19;20442;-81
2022/07/06 08:59:49;;;;;;;7.87;2.90;;;26.50;47.70;;;;;;7383337;19;20536;-82
2022/07/06 09:02:20;;;;;;;2.30;2.10;;;26.60;46.50;;;;;;7386274;19;20921;-81
2022/07/06 09:04:50;;;;;;;5.50;2.20;;;26.70;46.50;;;;;;7384577;19;20442;-82
2022/07/06 09:07:21;;;;;;;2.50;2.13;;;26.80;46.30;;;;;;7384534;19;21071;-82
2022/07/06 09:09:55;;;;;;;5.43;2.60;;;27.00;46.50;;;;;;7387048;19;20521;-82
2022/07/06 09:12:24;;;;;;;2.67;2.30;;;27.30;45.70;;;;;;7388654;19;20560;-81
2022/07/06 09:14:58;;;;;;;6.50;2.63;;;27.60;45.70;;;;;;7381030;19;20543;-81
2022/07/06 09:17:29;;;;;;;2.23;2.03;;;27.90;45.00;;;;;;7382406;19;20409;-80
2022/07/06 09:19:59;;;;;;;2.80;2.20;;;28.00;44.50;;;;;;7383456;19;20431;-81
2022/07/06 09:22:31;;;;;;;5.67;2.13;;;28.00;44.10;;;;;;7374239;19;20552;-81
2022/07/06 09:25:12;;;;;;;4.00;2.20;;;28.40;43.70;;;;;;7374337;19;20428;-79
2022/07/06 09:27:42;;;;;;;3.40;2.10;;;28.70;43.40;;;;;;7374001;19;20396;-80
2022/07/06 09:30:13;;;;;;;2.07;1.97;;;28.80;43.00;;;;;;7373635;19;20476;-84
2022/07/06 09:32:43;;;;;;;5.00;2.37;;;29.20;42.20;;;;;;7371988;19;20413;-82
2022/07/06 09:35:23;;;;;;;4.73;2.50;;;29.40;42.10;;;;;;7369241;19;20516;-82
2022/07/06 09:38:03;;;;;;;6.07;2.20;;;29.70;41.20;;;;;;7373101;19;20408;-83
2022/07/06 09:40:37;;;;;;;2.90;2.27;;;29.70;40.70;;;;;;7374499;19;20940;-83
2022/07/06 09:43:14;;;;;;;3.27;2.10;;;29.60;41.00;;;;;;7369252;19;20916;-83
2022/07/06 09:45:46;;;;;;;3.87;2.33;;;29.80;40.40;;;;;;7369312;19;21838;-82
2022/07/06 09:48:18;;;;;;;10.67;2.53;;;30.20;40.40;;;;;;7372827;19;20420;-82
2022/07/06 09:50:53;;;;;;;4.53;2.60;;;30.40;39.80;;;;;;7375968;19;20942;-83
2022/07/06 09:53:24;;;;;;;5.60;1.93;;;30.60;39.70;;;;;;7368643;19;20404;-85
2022/07/06 09:55:58;;;;;;;2.60;2.33;;;30.60;38.40;;;;;;7371675;19;20408;-84
2022/07/06 09:58:27;;;;;;;4.20;2.50;;;29.80;39.70;;;;;;7370709;19;20951;-84
2022/07/06 10:00:59;;;;;;;3.93;2.23;;;29.80;40.20;;;;;;7370294;19;20416;-84
2022/07/06 10:03:28;;;;;;;4.70;2.27;;;30.60;39.50;;;;;;7368394;19;20416;-83
2022/07/06 10:05:58;;;;;;;2.07;1.90;;;31.30;38.20;;;;;;7364081;19;20483;-83
2022/07/06 10:08:31;;;;;;;2.27;2.07;;;31.70;37.40;;;;;;7367706;19;20936;-84
2022/07/06 10:11:03;;;;;;;4.73;2.60;;;32.20;36.40;;;;;;7366569;19;20511;-85
2022/07/06 10:13:35;;;;;;;2.80;2.20;;;32.30;36.70;;;;;;7375292;19;20412;-83
2022/07/06 10:16:08;;;;;;;2.63;2.20;;;32.80;35.90;;;;;;7369307;19;20774;-80
2022/07/06 10:18:37;;;;;;;2.13;1.90;;;33.70;34.80;;;;;;7371993;19;21008;-80
2022/07/06 10:21:10;;;;;;;2.43;2.20;;;34.80;33.60;;;;;;7370025;19;20553;-83
2022/07/06 10:23:42;;;;;;;7.20;3.80;;;35.20;33.10;;;;;;7371896;19;20416;-81
2022/07/06 10:26:17;;;;;;;2.67;1.90;;;35.50;32.60;;;;;;7375616;19;20401;-84
2022/07/06 10:28:47;;;;;;;2.30;2.03;;;35.40;31.60;;;;;;7377033;19;20396;-84
2022/07/06 10:31:18;;;;;;;3.43;1.90;;;35.10;32.40;;;;;;7370799;19;20503;-84
2022/07/06 10:33:49;;;;;;;6.70;2.17;;;34.90;32.90;;;;;;7377464;19;21165;-84
2022/07/06 10:36:21;;;;;;;2.93;2.07;;;35.20;32.30;;;;;;7374541;19;20887;-84
2022/07/06 10:38:56;;;;;;;3.00;2.30;;;35.00;32.50;;;;;;7377607;19;20501;-84
2022/07/06 10:41:35;;;;;;;1.93;1.70;;;34.20;33.60;;;;;;7380911;19;20476;-83
2022/07/06 10:44:18;;;;;;;2.43;2.10;;;34.10;34.10;;;;;;7375943;19;20404;-84
2022/07/06 10:46:55;;;;;;;2.93;1.87;;;34.80;32.80;;;;;;7373536;19;20424;-84
2022/07/06 10:49:26;;;;;;;2.90;1.70;;;35.30;32.50;;;;;;7369356;19;20466;-82
2022/07/06 10:51:58;;;;;;;3.87;2.23;;;36.10;31.40;;;;;;7368160;19;20404;-83
2022/07/06 10:54:28;;;;;;;2.97;2.40;;;37.20;30.40;;;;;;7375538;19;20405;-82
2022/07/06 10:57:13;;;;;;;5.00;2.00;;;37.80;29.30;;;;;;7378346;19;20433;-82
2022/07/06 11:00:03;;;;;;;3.90;2.20;;;38.00;28.90;;;;;;7364784;19;20376;-86
2022/07/06 11:02:41;;;;;;;4.30;3.43;;;38.40;28.40;;;;;;7371290;19;20416;-85
2022/07/06 11:05:15;;;;;;;3.50;2.50;;;37.90;28.80;;;;;;7380168;19;21286;-84
2022/07/06 11:07:52;;;;;;;3.70;2.60;;;36.20;29.90;;;;;;7373951;19;20415;-82
2022/07/06 11:10:25;;;;;;;5.03;2.80;;;34.00;32.80;;;;;;7374730;19;20406;-81
2022/07/06 11:13:04;;;;;;;4.33;2.80;;;34.10;33.90;;;;;;7374316;19;20491;-81
2022/07/06 11:15:50;;;;;;;4.23;2.90;;;35.40;31.70;;;;;;7375125;19;20392;-81
2022/07/06 11:18:22;;;;;;;3.80;2.70;;;37.00;30.00;;;;;;7373116;19;20403;-82
2022/07/06 11:21:18;;;;;;;4.30;2.20;;;38.00;29.20;;;;;;7369214;19;20445;-82
2022/07/06 11:23:50;;;;;;;5.67;2.70;;;38.70;28.20;;;;;;7370240;19;20408;-82
2022/07/06 11:26:20;;;;;;;5.33;2.73;;;37.60;28.70;;;;;;7371675;19;20819;-80
2022/07/06 11:28:56;;;;;;;4.40;2.23;;;36.20;30.50;;;;;;7367883;19;20427;-82
2022/07/06 11:31:26;;;;;;;2.83;2.63;;;35.10;31.50;;;;;;7376100;19;20928;-80
2022/07/06 11:33:55;;;;;;;5.40;2.70;;;33.80;33.20;;;;;;7372511;19;20408;-83
2022/07/06 11:36:25;;;;;;;4.70;2.80;;;33.90;33.60;;;;;;7371291;19;20429;-83
2022/07/06 11:38:54;;;;;;;2.33;2.13;;;35.00;32.20;;;;;;7372623;19;20409;-83
2022/07/06 11:41:24;;;;;;;4.77;2.07;;;35.70;31.50;;;;;;7378954;19;20427;-83
2022/07/06 11:43:56;;;;;;;4.60;2.50;;;36.80;30.00;;;;;;7366228;19;20408;-83
2022/07/06 11:46:29;;;;;;;4.07;2.53;;;37.60;29.50;;;;;;7376364;19;20405;-83
2022/07/06 11:49:00;;;;;;;5.80;2.47;;;38.10;28.90;;;;;;7386818;19;20404;-84
2022/07/06 11:51:31;;;;;;;3.53;2.30;;;37.40;29.30;;;;;;7390369;19;20528;-85
2022/07/06 11:54:02;;;;;;;4.60;2.70;;;37.20;29.30;;;;;;7389530;19;20976;-84
2022/07/06 11:56:32;;;;;;;4.10;2.40;;;37.00;29.40;;;;;;7389778;19;21528;-84
2022/07/06 11:59:05;;;;;;;2.90;2.20;;;36.40;30.00;;;;;;7394193;19;21053;-84
2022/07/06 12:01:35;;;;;;;7.30;2.70;;;35.90;30.70;;;;;;7393974;19;21105;-84
2022/07/06 12:04:07;;;;;;;3.73;2.63;;;35.80;30.80;;;;;;7395243;19;20413;-84
2022/07/06 12:06:37;;;;;;;5.13;2.50;;;35.30;31.30;;;;;;7394211;19;20396;-84
2022/07/06 12:09:06;;;;;;;3.30;2.40;;;35.00;31.90;;;;;;7396386;19;20891;-84
2022/07/06 12:11:39;;;;;;;4.50;2.47;;;34.80;32.30;;;;;;7397184;19;20426;-83
2022/07/06 12:14:19;;;;;;;4.30;2.93;;;35.40;31.60;;;;;;7409753;19;20428;-83
2022/07/06 12:16:51;;;;;;;5.30;2.60;;;35.30;31.70;;;;;;7413271;19;20422;-83
2022/07/06 12:19:24;;;;;;;7.87;2.90;;;35.10;32.10;;;;;;7418840;19;20424;-83
2022/07/06 12:21:56;;;;;;;4.20;2.60;;;35.90;30.60;;;;;;7413678;19;20413;-83
2022/07/06 12:24:27;;;;;;;2.53;2.20;;;36.30;30.20;;;;;;7412676;19;20487;-82
2022/07/06 12:26:58;;;;;;;5.30;2.77;;;35.40;30.80;;;;;;7411716;19;20429;-83
2022/07/06 12:29:30;;;;;;;5.10;3.07;;;34.10;33.00;;;;;;7416375;19;20408;-82
2022/07/06 12:32:02;;;;;;;5.20;3.00;;;33.40;33.80;;;;;;7404479;19;20819;-80
2022/07/06 12:34:35;;;;;;;3.40;2.83;;;33.40;34.00;;;;;;7394172;19;20405;-80
2022/07/06 12:37:10;;;;;;;4.40;2.33;;;33.90;33.10;;;;;;7399189;19;20410;-81
2022/07/06 12:39:44;;;;;;;5.03;3.00;;;34.80;32.00;;;;;;7398937;19;20400;-82
2022/07/06 12:42:16;;;;;;;5.23;2.73;;;35.00;31.50;;;;;;7417767;19;20408;-84
2022/07/06 12:44:50;;;;;;;6.40;3.03;;;34.30;32.10;;;;;;7394645;19;20380;-83
2022/07/06 12:47:23;;;;;;;8.10;2.90;;;34.10;32.80;;;;;;7396297;19;20417;-83
2022/07/06 12:50:09;;;;;;;7.63;2.27;;;34.60;31.70;;;;;;7398634;19;20456;-82
2022/07/06 12:52:41;;;;;;;4.17;2.90;;;35.90;30.40;;;;;;7405636;19;20797;-83
2022/07/06 12:55:15;;;;;;;3.70;2.40;;;36.20;30.00;;;;;;7408272;19;20402;-83
2022/07/06 12:57:49;;;;;;;4.70;2.90;;;36.60;29.60;;;;;;7408892;19;20458;-83
2022/07/06 13:00:23;;;;;;;3.60;2.73;;;36.20;29.90;;;;;;7406521;19;20412;-82
2022/07/06 13:02:56;;;;;;;2.53;2.30;;;35.30;30.90;;;;;;7406299;19;20922;-83
2022/07/06 13:05:28;;;;;;;6.10;2.63;;;35.60;30.60;;;;;;7399780;19;20392;-78
2022/07/06 13:08:00;;;;;;;3.50;2.57;;;36.30;30.00;;;;;;7403397;19;20779;-81
2022/07/06 13:10:30;;;;;;;5.07;2.80;;;36.00;30.00;;;;;;7401132;19;20401;-80
2022/07/06 13:13:02;;;;;;;3.93;2.43;;;34.80;31.00;;;;;;7391371;19;20416;-78